DJT300 LIMC-KEWR
Flight info
| Callsign | DJT300 |
|---|---|
| Flight time | N/A |
| Altitude | 34000 |
| Route | AOSTA DCT ORSUD DCT MOLUS DCT UNKIR DCT DJL DCT OKRIX/N0452F360 DCT AMODO DCT COHPA UM729 RESMI UN491 LGL UN502 JSY DCT LIZAD DCT LESLU DCT MALOT/M079F380 DCT 53N020W 53N030W 53N040W 51N050W DCT ALLRY/N0454F380 N468A TUSKY Q475 COPLY DCT BOS DCT NELIE FLOSI4 |
| Aircraft | A21N/M-SDE3FGHIRWY/LB1 |
Departure
| Time | N/A |
|---|---|
| Airport | Milan Malpensa International Airport (LIMC) |
Arrival
| Time | 2026-04-21 23:42 |
|---|---|
| Airport | Newark Liberty International Airport (KEWR) |
| Time | Latitude | Longitude | Altitude | Speed | Heading |
|---|---|---|---|---|---|
| 2026-04-21 18:39 | 53.07993 | -27.44484 | 36226 ft | 464 kts | 272° |
| 2026-04-21 18:40 | 53.07772 | -27.55188 | 36222 ft | 465 kts | 272° |
| 2026-04-21 18:40 | 53.07578 | -27.64113 | 36224 ft | 465 kts | 272° |
| 2026-04-21 18:41 | 53.07294 | -27.76555 | 36206 ft | 464 kts | 272° |
| 2026-04-21 18:41 | 53.07040 | -27.87272 | 36213 ft | 465 kts | 272° |
| 2026-04-21 18:42 | 53.06771 | -27.98204 | 36233 ft | 465 kts | 272° |
| 2026-04-21 18:42 | 53.06498 | -28.08932 | 36217 ft | 465 kts | 272° |
| 2026-04-21 18:43 | 53.06218 | -28.19553 | 36244 ft | 464 kts | 273° |
| 2026-04-21 18:43 | 53.05927 | -28.30244 | 36238 ft | 464 kts | 273° |
| 2026-04-21 18:44 | 53.05628 | -28.40877 | 36231 ft | 464 kts | 273° |
| 2026-04-21 18:44 | 53.05316 | -28.51584 | 36234 ft | 463 kts | 273° |
| 2026-04-21 18:45 | 53.05000 | -28.62203 | 36236 ft | 462 kts | 273° |
| 2026-04-21 18:45 | 53.04671 | -28.72840 | 36242 ft | 463 kts | 272° |
| 2026-04-21 18:46 | 53.04334 | -28.83451 | 36239 ft | 463 kts | 272° |
| 2026-04-21 18:46 | 53.03986 | -28.94074 | 36246 ft | 462 kts | 272° |
| 2026-04-21 18:47 | 53.03632 | -29.04713 | 36257 ft | 462 kts | 272° |
| 2026-04-21 18:47 | 53.03266 | -29.15338 | 36265 ft | 462 kts | 273° |
| 2026-04-21 18:48 | 53.02891 | -29.25943 | 36270 ft | 462 kts | 272° |
| 2026-04-21 18:48 | 53.02504 | -29.36589 | 36264 ft | 461 kts | 273° |
| 2026-04-21 18:49 | 53.02114 | -29.47160 | 36262 ft | 461 kts | 273° |
| 2026-04-21 18:49 | 53.01780 | -29.55982 | 36254 ft | 461 kts | 272° |
| 2026-04-21 18:50 | 53.01299 | -29.68313 | 36266 ft | 461 kts | 272° |
| 2026-04-21 18:50 | 53.00876 | -29.78866 | 36262 ft | 461 kts | 272° |
| 2026-04-21 18:51 | 53.00443 | -29.89474 | 36273 ft | 462 kts | 272° |
| 2026-04-21 18:51 | 53.00122 | -30.00082 | 36262 ft | 458 kts | 276° |
| 2026-04-21 18:52 | 53.00415 | -30.10633 | 36269 ft | 457 kts | 280° |
| 2026-04-21 18:52 | 53.00861 | -30.21146 | 36279 ft | 456 kts | 281° |
| 2026-04-21 18:53 | 53.01290 | -30.31599 | 36280 ft | 456 kts | 281° |
| 2026-04-21 18:53 | 53.01704 | -30.42115 | 36275 ft | 456 kts | 281° |
| 2026-04-21 18:54 | 53.02103 | -30.52587 | 36278 ft | 456 kts | 281° |
| 2026-04-21 18:54 | 53.02495 | -30.63104 | 36284 ft | 456 kts | 281° |
| 2026-04-21 18:55 | 53.02813 | -30.71815 | 36289 ft | 456 kts | 279° |
| 2026-04-21 18:55 | 53.03246 | -30.84034 | 36288 ft | 455 kts | 279° |
| 2026-04-21 18:56 | 53.03606 | -30.94465 | 36294 ft | 455 kts | 279° |
| 2026-04-21 18:56 | 53.03958 | -31.04945 | 36279 ft | 455 kts | 279° |
| 2026-04-21 18:57 | 53.04299 | -31.15355 | 36285 ft | 455 kts | 279° |
| 2026-04-21 18:57 | 53.04634 | -31.25870 | 36295 ft | 454 kts | 279° |
| 2026-04-21 18:58 | 53.04955 | -31.36279 | 36297 ft | 454 kts | 279° |
| 2026-04-21 18:58 | 53.05271 | -31.46731 | 36293 ft | 454 kts | 279° |
| 2026-04-21 18:59 | 53.05577 | -31.57193 | 36303 ft | 454 kts | 279° |
| 2026-04-21 18:59 | 53.05872 | -31.67666 | 36306 ft | 453 kts | 279° |
| 2026-04-21 19:00 | 53.06160 | -31.78133 | 36315 ft | 454 kts | 278° |
| 2026-04-21 19:00 | 53.06438 | -31.88521 | 36313 ft | 454 kts | 278° |
| 2026-04-21 19:01 | 53.06708 | -31.98979 | 36315 ft | 455 kts | 278° |
| 2026-04-21 19:01 | 53.06965 | -32.09452 | 36312 ft | 454 kts | 278° |
| 2026-04-21 19:02 | 53.07216 | -32.19912 | 36324 ft | 453 kts | 278° |
| 2026-04-21 19:02 | 53.07457 | -32.30345 | 36335 ft | 453 kts | 278° |
| 2026-04-21 19:03 | 53.07688 | -32.40800 | 36338 ft | 454 kts | 278° |
| 2026-04-21 19:03 | 53.07912 | -32.51245 | 36322 ft | 453 kts | 278° |
| 2026-04-21 19:04 | 53.08127 | -32.61707 | 36310 ft | 454 kts | 278° |
| 2026-04-21 19:04 | 53.08330 | -32.72117 | 36332 ft | 454 kts | 277° |
| 2026-04-21 19:05 | 53.08524 | -32.82586 | 36315 ft | 453 kts | 277° |
| 2026-04-21 19:05 | 53.08711 | -32.93047 | 36338 ft | 453 kts | 277° |
| 2026-04-21 19:06 | 53.08889 | -33.03511 | 36317 ft | 453 kts | 277° |
| 2026-04-21 19:06 | 53.09053 | -33.13903 | 36312 ft | 453 kts | 277° |
| 2026-04-21 19:07 | 53.09212 | -33.24343 | 36317 ft | 453 kts | 277° |
| 2026-04-21 19:07 | 53.09362 | -33.34814 | 36323 ft | 452 kts | 277° |
| 2026-04-21 19:08 | 53.09502 | -33.45205 | 36312 ft | 453 kts | 276° |
| 2026-04-21 19:08 | 53.09632 | -33.55633 | 36315 ft | 452 kts | 277° |
| 2026-04-21 19:09 | 53.09753 | -33.66087 | 36309 ft | 452 kts | 276° |
| 2026-04-21 19:09 | 53.09867 | -33.76513 | 36314 ft | 452 kts | 276° |
| 2026-04-21 19:10 | 53.09972 | -33.86953 | 36312 ft | 453 kts | 275° |
| 2026-04-21 19:10 | 53.10064 | -33.97410 | 36318 ft | 453 kts | 275° |
| 2026-04-21 19:11 | 53.10149 | -34.07861 | 36323 ft | 452 kts | 275° |
| 2026-04-21 19:11 | 53.10224 | -34.18270 | 36332 ft | 452 kts | 275° |
| 2026-04-21 19:12 | 53.10282 | -34.26973 | 36326 ft | 452 kts | 275° |
| 2026-04-21 19:12 | 53.10348 | -34.39139 | 36333 ft | 451 kts | 275° |
| 2026-04-21 19:13 | 53.10400 | -34.49518 | 36337 ft | 451 kts | 275° |
| 2026-04-21 19:13 | 53.10438 | -34.59935 | 36334 ft | 450 kts | 275° |
| 2026-04-21 19:14 | 53.10468 | -34.70291 | 36342 ft | 451 kts | 275° |
| 2026-04-21 19:14 | 53.10492 | -34.80725 | 36347 ft | 450 kts | 274° |
| 2026-04-21 19:15 | 53.10503 | -34.91105 | 36355 ft | 450 kts | 274° |
| 2026-04-21 19:15 | 53.10506 | -35.01517 | 36359 ft | 449 kts | 274° |
| 2026-04-21 19:16 | 53.10499 | -35.11808 | 36357 ft | 447 kts | 274° |
| 2026-04-21 19:16 | 53.10485 | -35.22144 | 36357 ft | 448 kts | 274° |
| 2026-04-21 19:17 | 53.10447 | -35.37665 | 36359 ft | 447 kts | 274° |
| 2026-04-21 19:17 | 53.10411 | -35.47960 | 36366 ft | 447 kts | 274° |
| 2026-04-21 19:18 | 53.10362 | -35.58247 | 36360 ft | 446 kts | 274° |
| 2026-04-21 19:18 | 53.10310 | -35.68602 | 36356 ft | 446 kts | 273° |
| 2026-04-21 19:19 | 53.10245 | -35.78865 | 36350 ft | 445 kts | 273° |
| 2026-04-21 19:19 | 53.10174 | -35.89122 | 36356 ft | 445 kts | 273° |
| 2026-04-21 19:20 | 53.10092 | -35.99426 | 36359 ft | 445 kts | 273° |
| 2026-04-21 19:20 | 53.10002 | -36.09676 | 36344 ft | 444 kts | 273° |
| 2026-04-21 19:21 | 53.09903 | -36.19893 | 36343 ft | 444 kts | 273° |
| 2026-04-21 19:21 | 53.09796 | -36.30153 | 36339 ft | 443 kts | 273° |
| 2026-04-21 19:22 | 53.09681 | -36.40398 | 36344 ft | 443 kts | 273° |
| 2026-04-21 19:22 | 53.09556 | -36.50607 | 36336 ft | 444 kts | 273° |
| 2026-04-21 19:23 | 53.09422 | -36.60930 | 36344 ft | 444 kts | 273° |
| 2026-04-21 19:23 | 53.09280 | -36.71148 | 36349 ft | 444 kts | 272° |
| 2026-04-21 19:24 | 53.09129 | -36.81360 | 36353 ft | 444 kts | 272° |
| 2026-04-21 19:24 | 53.08969 | -36.91661 | 36494 ft | 453 kts | 272° |
| 2026-04-21 19:25 | 53.08884 | -36.96962 | 36598 ft | 457 kts | 272° |
| 2026-04-21 19:25 | 53.08796 | -37.02190 | 36709 ft | 460 kts | 272° |
| 2026-04-21 19:25 | 53.08703 | -37.07548 | 36838 ft | 463 kts | 272° |
| 2026-04-21 19:25 | 53.08609 | -37.12875 | 37044 ft | 464 kts | 272° |
| 2026-04-21 19:26 | 53.08511 | -37.18203 | 37323 ft | 464 kts | 272° |
| 2026-04-21 19:26 | 53.08410 | -37.23518 | 37621 ft | 462 kts | 272° |
| 2026-04-21 19:26 | 53.08306 | -37.28883 | 37914 ft | 460 kts | 272° |
| 2026-04-21 19:26 | 53.08202 | -37.34141 | 38178 ft | 459 kts | 272° |
| 2026-04-21 19:27 | 53.08096 | -37.39436 | 38367 ft | 458 kts | 272° |
| 2026-04-21 19:27 | 53.07989 | -37.44725 | 38389 ft | 458 kts | 272° |
| 2026-04-21 19:27 | 53.07770 | -37.55182 | 38379 ft | 456 kts | 272° |
| 2026-04-21 19:28 | 53.07542 | -37.65686 | 38391 ft | 456 kts | 272° |
| 2026-04-21 19:28 | 53.07305 | -37.76169 | 38377 ft | 454 kts | 272° |
| 2026-04-21 19:29 | 53.07058 | -37.86627 | 38378 ft | 454 kts | 272° |
| 2026-04-21 19:29 | 53.06804 | -37.97024 | 38385 ft | 451 kts | 272° |
| 2026-04-21 19:30 | 53.06538 | -38.07442 | 38359 ft | 452 kts | 272° |
| 2026-04-21 19:30 | 53.06266 | -38.17838 | 38352 ft | 452 kts | 272° |
| 2026-04-21 19:31 | 53.05986 | -38.28218 | 38356 ft | 452 kts | 272° |
| 2026-04-21 19:31 | 53.05691 | -38.38623 | 38364 ft | 451 kts | 271° |
| 2026-04-21 19:32 | 53.05391 | -38.49047 | 38362 ft | 451 kts | 272° |
| 2026-04-21 19:32 | 53.05085 | -38.59412 | 38350 ft | 452 kts | 272° |
| 2026-04-21 19:33 | 53.04767 | -38.69820 | 38359 ft | 453 kts | 271° |
| 2026-04-21 19:33 | 53.04442 | -38.80172 | 38333 ft | 453 kts | 271° |
| 2026-04-21 19:34 | 53.04103 | -38.90620 | 38355 ft | 453 kts | 271° |
| 2026-04-21 19:34 | 53.03759 | -39.00961 | 38356 ft | 452 kts | 271° |
| 2026-04-21 19:35 | 53.03221 | -39.16574 | 38356 ft | 452 kts | 271° |
| 2026-04-21 19:36 | 53.02855 | -39.26904 | 38342 ft | 451 kts | 271° |
| 2026-04-21 19:36 | 53.02478 | -39.37241 | 38345 ft | 450 kts | 272° |
| 2026-04-21 19:37 | 53.02092 | -39.47628 | 38347 ft | 449 kts | 272° |
| 2026-04-21 19:37 | 53.01701 | -39.57879 | 38351 ft | 449 kts | 272° |
| 2026-04-21 19:38 | 53.01300 | -39.68206 | 38356 ft | 447 kts | 271° |
| 2026-04-21 19:38 | 53.00962 | -39.76703 | 38362 ft | 446 kts | 271° |
| 2026-04-21 19:39 | 53.00475 | -39.88640 | 38365 ft | 444 kts | 271° |
| 2026-04-21 19:39 | 52.99900 | -39.98832 | 38364 ft | 448 kts | 268° |
| 2026-04-21 19:40 | 52.98665 | -40.08949 | 38355 ft | 451 kts | 262° |
| 2026-04-21 19:40 | 52.97906 | -40.13975 | 38505 ft | 453 kts | 262° |
| 2026-04-21 19:40 | 52.97140 | -40.19002 | 38414 ft | 451 kts | 262° |
| 2026-04-21 19:41 | 52.95598 | -40.29067 | 38395 ft | 450 kts | 262° |
| 2026-04-21 19:41 | 52.94071 | -40.39010 | 38373 ft | 449 kts | 262° |
| 2026-04-21 19:42 | 52.92527 | -40.49006 | 38373 ft | 449 kts | 262° |
| 2026-04-21 19:42 | 52.90977 | -40.58990 | 38365 ft | 449 kts | 262° |
| 2026-04-21 19:43 | 52.89417 | -40.68974 | 38358 ft | 449 kts | 261° |
| 2026-04-21 19:43 | 52.87851 | -40.78943 | 38370 ft | 448 kts | 261° |
| 2026-04-21 19:44 | 52.86277 | -40.88892 | 38368 ft | 447 kts | 261° |
| 2026-04-21 19:44 | 52.84708 | -40.98760 | 38370 ft | 447 kts | 261° |
| 2026-04-21 19:45 | 52.83130 | -41.08630 | 38346 ft | 447 kts | 261° |
| 2026-04-21 19:45 | 52.81534 | -41.18551 | 38334 ft | 448 kts | 261° |
| 2026-04-21 19:46 | 52.79935 | -41.28429 | 38330 ft | 447 kts | 261° |
| 2026-04-21 19:46 | 52.78323 | -41.38325 | 38331 ft | 446 kts | 261° |
| 2026-04-21 19:47 | 52.76717 | -41.48127 | 38327 ft | 446 kts | 261° |
| 2026-04-21 19:47 | 52.75087 | -41.58027 | 38330 ft | 447 kts | 261° |
| 2026-04-21 19:48 | 52.73460 | -41.67845 | 38331 ft | 447 kts | 260° |
| 2026-04-21 19:48 | 52.71820 | -41.77687 | 38333 ft | 448 kts | 259° |
| 2026-04-21 19:49 | 52.70168 | -41.87542 | 38329 ft | 448 kts | 259° |
| 2026-04-21 19:49 | 52.68510 | -41.97391 | 38330 ft | 448 kts | 259° |
| 2026-04-21 19:50 | 52.67115 | -42.05611 | 38333 ft | 447 kts | 259° |
| 2026-04-21 19:50 | 52.65168 | -42.17043 | 38325 ft | 447 kts | 259° |
| 2026-04-21 19:51 | 52.63482 | -42.26871 | 38324 ft | 448 kts | 259° |
| 2026-04-21 19:51 | 52.61787 | -42.36704 | 38321 ft | 447 kts | 259° |
| 2026-04-21 19:52 | 52.60097 | -42.46458 | 38320 ft | 446 kts | 259° |
| 2026-04-21 19:52 | 52.58383 | -42.56290 | 38323 ft | 446 kts | 259° |
| 2026-04-21 19:53 | 52.56676 | -42.66029 | 38313 ft | 446 kts | 258° |
| 2026-04-21 19:53 | 52.54955 | -42.75797 | 38312 ft | 446 kts | 258° |
| 2026-04-21 19:54 | 52.53227 | -42.85543 | 38312 ft | 446 kts | 258° |
| 2026-04-21 19:54 | 52.51494 | -42.95276 | 38306 ft | 445 kts | 258° |
| 2026-04-21 19:55 | 52.49757 | -43.04976 | 38309 ft | 445 kts | 258° |
| 2026-04-21 19:55 | 52.48010 | -43.14672 | 38303 ft | 445 kts | 258° |
| 2026-04-21 19:56 | 52.46259 | -43.24345 | 38300 ft | 444 kts | 258° |
| 2026-04-21 19:56 | 52.44509 | -43.33952 | 38297 ft | 444 kts | 258° |
| 2026-04-21 19:57 | 52.42742 | -43.43611 | 38294 ft | 443 kts | 258° |
| 2026-04-21 19:57 | 52.40970 | -43.53258 | 38289 ft | 443 kts | 257° |
| 2026-04-21 19:58 | 52.39190 | -43.62883 | 38287 ft | 443 kts | 258° |
| 2026-04-21 19:58 | 52.37413 | -43.72443 | 38287 ft | 443 kts | 257° |
| 2026-04-21 19:59 | 52.35623 | -43.82026 | 38278 ft | 442 kts | 257° |
| 2026-04-21 19:59 | 52.33827 | -43.91594 | 38281 ft | 442 kts | 257° |
| 2026-04-21 20:00 | 52.32022 | -44.01160 | 38275 ft | 441 kts | 257° |
| 2026-04-21 20:00 | 52.30215 | -44.10691 | 38269 ft | 441 kts | 257° |
| 2026-04-21 20:01 | 52.28401 | -44.20212 | 38271 ft | 441 kts | 256° |
| 2026-04-21 20:01 | 52.26585 | -44.29681 | 38262 ft | 440 kts | 257° |
| 2026-04-21 20:02 | 52.25061 | -44.37603 | 38260 ft | 440 kts | 256° |
| 2026-04-21 20:02 | 52.22923 | -44.48658 | 38257 ft | 438 kts | 256° |
| 2026-04-21 20:03 | 52.21095 | -44.58059 | 38253 ft | 438 kts | 256° |
| 2026-04-21 20:03 | 52.19247 | -44.67512 | 38244 ft | 438 kts | 255° |
| 2026-04-21 20:04 | 52.17407 | -44.76891 | 38240 ft | 437 kts | 255° |
| 2026-04-21 20:04 | 52.15558 | -44.86262 | 38239 ft | 437 kts | 255° |
| 2026-04-21 20:05 | 52.13688 | -44.95690 | 38232 ft | 436 kts | 255° |
| 2026-04-21 20:05 | 52.11820 | -45.05060 | 38227 ft | 436 kts | 255° |
| 2026-04-21 20:06 | 52.09953 | -45.14388 | 38221 ft | 435 kts | 255° |
| 2026-04-21 20:06 | 52.08087 | -45.23658 | 38218 ft | 434 kts | 255° |
| 2026-04-21 20:07 | 52.06210 | -45.32947 | 38218 ft | 433 kts | 255° |
| 2026-04-21 20:07 | 52.04639 | -45.40693 | 38213 ft | 433 kts | 254° |
| 2026-04-21 20:08 | 52.02432 | -45.51516 | 38213 ft | 432 kts | 254° |
| 2026-04-21 20:08 | 52.00554 | -45.60673 | 38210 ft | 431 kts | 254° |
| 2026-04-21 20:09 | 51.98660 | -45.69868 | 38209 ft | 431 kts | 253° |
| 2026-04-21 20:09 | 51.96755 | -45.79079 | 38210 ft | 431 kts | 253° |
| 2026-04-21 20:10 | 51.94839 | -45.88295 | 38205 ft | 432 kts | 253° |
| 2026-04-21 20:10 | 51.92929 | -45.97451 | 38200 ft | 432 kts | 253° |
| 2026-04-21 20:11 | 51.90997 | -46.06656 | 38198 ft | 432 kts | 253° |
| 2026-04-21 20:11 | 51.89064 | -46.15831 | 38195 ft | 430 kts | 252° |
| 2026-04-21 20:12 | 51.87144 | -46.24896 | 38185 ft | 429 kts | 252° |
| 2026-04-21 20:12 | 51.85527 | -46.32498 | 38190 ft | 429 kts | 252° |
| 2026-04-21 20:13 | 51.83262 | -46.43111 | 38182 ft | 429 kts | 252° |
| 2026-04-21 20:13 | 51.81321 | -46.52156 | 38182 ft | 428 kts | 252° |
| 2026-04-21 20:14 | 51.79369 | -46.61216 | 38173 ft | 427 kts | 252° |
| 2026-04-21 20:14 | 51.77419 | -46.70228 | 38169 ft | 427 kts | 251° |
| 2026-04-21 20:15 | 51.75456 | -46.79261 | 38164 ft | 427 kts | 251° |
| 2026-04-21 20:15 | 51.73497 | -46.88230 | 38161 ft | 426 kts | 251° |
| 2026-04-21 20:16 | 51.71527 | -46.97212 | 38159 ft | 427 kts | 251° |
| 2026-04-21 20:16 | 51.69544 | -47.06215 | 38154 ft | 427 kts | 251° |
| 2026-04-21 20:17 | 51.67569 | -47.15141 | 38152 ft | 427 kts | 251° |
| 2026-04-21 20:17 | 51.65573 | -47.24126 | 38148 ft | 427 kts | 250° |
| 2026-04-21 20:18 | 51.63914 | -47.31560 | 38147 ft | 426 kts | 250° |
| 2026-04-21 20:18 | 51.61580 | -47.41986 | 38145 ft | 425 kts | 250° |
| 2026-04-21 20:19 | 51.59576 | -47.50891 | 38140 ft | 425 kts | 250° |
| 2026-04-21 20:19 | 51.57563 | -47.59794 | 38140 ft | 425 kts | 250° |
| 2026-04-21 20:20 | 51.55547 | -47.68675 | 38135 ft | 426 kts | 249° |
| 2026-04-21 20:20 | 51.53525 | -47.77550 | 38134 ft | 425 kts | 249° |
| 2026-04-21 20:21 | 51.51487 | -47.86459 | 38129 ft | 425 kts | 249° |
| 2026-04-21 20:21 | 51.49451 | -47.95318 | 38126 ft | 426 kts | 249° |
| 2026-04-21 20:22 | 51.47395 | -48.04223 | 38115 ft | 427 kts | 249° |
| 2026-04-21 20:22 | 51.44316 | -48.17492 | 38107 ft | 426 kts | 249° |
| 2026-04-21 20:23 | 51.42244 | -48.26382 | 38105 ft | 425 kts | 249° |
| 2026-04-21 20:23 | 51.40179 | -48.35199 | 38102 ft | 425 kts | 249° |
| 2026-04-21 20:24 | 51.38108 | -48.44006 | 38097 ft | 423 kts | 248° |
| 2026-04-21 20:24 | 51.36043 | -48.52753 | 38096 ft | 423 kts | 248° |
| 2026-04-21 20:25 | 51.33955 | -48.61559 | 38089 ft | 423 kts | 248° |
| 2026-04-21 20:25 | 51.31868 | -48.70329 | 38087 ft | 423 kts | 248° |
| 2026-04-21 20:26 | 51.29787 | -48.79041 | 38087 ft | 422 kts | 247° |
| 2026-04-21 20:26 | 51.27697 | -48.87754 | 38082 ft | 422 kts | 247° |
| 2026-04-21 20:27 | 51.25595 | -48.96476 | 38078 ft | 420 kts | 247° |
| 2026-04-21 20:27 | 51.23497 | -49.05147 | 38075 ft | 420 kts | 247° |
| 2026-04-21 20:28 | 51.21392 | -49.13816 | 38069 ft | 420 kts | 247° |
| 2026-04-21 20:28 | 51.19286 | -49.22459 | 38072 ft | 420 kts | 247° |
| 2026-04-21 20:29 | 51.17180 | -49.31064 | 38067 ft | 419 kts | 247° |
| 2026-04-21 20:29 | 51.15070 | -49.39645 | 38065 ft | 419 kts | 246° |
| 2026-04-21 20:30 | 51.12947 | -49.48256 | 38058 ft | 417 kts | 246° |
| 2026-04-21 20:30 | 51.10829 | -49.56809 | 38066 ft | 416 kts | 246° |
| 2026-04-21 20:31 | 51.08720 | -49.65291 | 38061 ft | 416 kts | 246° |
| 2026-04-21 20:31 | 51.06589 | -49.73832 | 38058 ft | 415 kts | 245° |
| 2026-04-21 20:32 | 51.04464 | -49.82310 | 38053 ft | 414 kts | 245° |
| 2026-04-21 20:32 | 51.02342 | -49.90746 | 38051 ft | 414 kts | 245° |
| 2026-04-21 20:33 | 51.00201 | -49.99224 | 38059 ft | 412 kts | 245° |
| 2026-04-21 20:33 | 50.98133 | -50.07746 | 38060 ft | 411 kts | 246° |
| 2026-04-21 20:34 | 50.96103 | -50.16252 | 38063 ft | 411 kts | 246° |
| 2026-04-21 20:34 | 50.94082 | -50.24663 | 38069 ft | 410 kts | 246° |
| 2026-04-21 20:35 | 50.92039 | -50.33109 | 38070 ft | 410 kts | 246° |
| 2026-04-21 20:35 | 50.90001 | -50.41503 | 38072 ft | 409 kts | 246° |
| 2026-04-21 20:36 | 50.87967 | -50.49855 | 38078 ft | 408 kts | 246° |
| 2026-04-21 20:36 | 50.85920 | -50.58211 | 38080 ft | 407 kts | 246° |
| 2026-04-21 20:37 | 50.83886 | -50.66490 | 38080 ft | 407 kts | 246° |
| 2026-04-21 20:37 | 50.81832 | -50.74813 | 38085 ft | 405 kts | 245° |
| 2026-04-21 20:38 | 50.79777 | -50.83109 | 38090 ft | 405 kts | 246° |
| 2026-04-21 20:38 | 50.77756 | -50.91244 | 38089 ft | 403 kts | 245° |
| 2026-04-21 20:39 | 50.75682 | -50.99566 | 38091 ft | 404 kts | 245° |
| 2026-04-21 20:39 | 50.73618 | -51.07807 | 38097 ft | 404 kts | 245° |
| 2026-04-21 20:40 | 50.71565 | -51.15971 | 38095 ft | 403 kts | 245° |
| 2026-04-21 20:40 | 50.69482 | -51.24239 | 38092 ft | 403 kts | 245° |
| 2026-04-21 20:41 | 50.67415 | -51.32396 | 38098 ft | 402 kts | 245° |
| 2026-04-21 20:41 | 50.65314 | -51.40667 | 38105 ft | 402 kts | 245° |
| 2026-04-21 20:42 | 50.63195 | -51.48967 | 38101 ft | 403 kts | 245° |
| 2026-04-21 20:42 | 50.61105 | -51.57130 | 38105 ft | 403 kts | 245° |
| 2026-04-21 20:43 | 50.59005 | -51.65305 | 38114 ft | 402 kts | 244° |
| 2026-04-21 20:43 | 50.56914 | -51.73414 | 38106 ft | 401 kts | 244° |
| 2026-04-21 20:44 | 50.54812 | -51.81536 | 38113 ft | 400 kts | 244° |
| 2026-04-21 20:44 | 50.52720 | -51.89585 | 38111 ft | 401 kts | 244° |
| 2026-04-21 20:45 | 50.50574 | -51.97734 | 38111 ft | 399 kts | 243° |
| 2026-04-21 20:45 | 50.48114 | -52.05433 | 38115 ft | 397 kts | 239° |
| 2026-04-21 20:46 | 50.45487 | -52.13041 | 38121 ft | 398 kts | 239° |
| 2026-04-21 20:46 | 50.42857 | -52.20632 | 38119 ft | 397 kts | 239° |
| 2026-04-21 20:47 | 50.40214 | -52.28229 | 38124 ft | 396 kts | 238° |
| 2026-04-21 20:47 | 50.37590 | -52.35749 | 38129 ft | 396 kts | 239° |
| 2026-04-21 20:48 | 50.36267 | -52.39529 | 37892 ft | 397 kts | 238° |
| 2026-04-21 20:48 | 50.34939 | -52.43315 | 38059 ft | 397 kts | 239° |
| 2026-04-21 20:48 | 50.32285 | -52.50865 | 38125 ft | 397 kts | 238° |
| 2026-04-21 20:49 | 50.29633 | -52.58397 | 38143 ft | 397 kts | 238° |
| 2026-04-21 20:49 | 50.26983 | -52.65896 | 38145 ft | 396 kts | 238° |
| 2026-04-21 20:50 | 50.24318 | -52.73405 | 38145 ft | 396 kts | 238° |
| 2026-04-21 20:50 | 50.21615 | -52.81015 | 38147 ft | 396 kts | 237° |
| 2026-04-21 20:51 | 50.18922 | -52.88570 | 38157 ft | 394 kts | 238° |
| 2026-04-21 20:51 | 50.16238 | -52.96074 | 38164 ft | 393 kts | 237° |
| 2026-04-21 20:52 | 50.13527 | -53.03632 | 38165 ft | 394 kts | 238° |
| 2026-04-21 20:52 | 50.10839 | -53.11102 | 38162 ft | 393 kts | 237° |
| 2026-04-21 20:53 | 50.08174 | -53.18499 | 38164 ft | 392 kts | 237° |
| 2026-04-21 20:53 | 50.05496 | -53.25902 | 38168 ft | 391 kts | 237° |
| 2026-04-21 20:54 | 50.02837 | -53.33214 | 38166 ft | 390 kts | 237° |
| 2026-04-21 20:54 | 50.00167 | -53.40555 | 38170 ft | 391 kts | 237° |
| 2026-04-21 20:55 | 49.97489 | -53.47897 | 38178 ft | 389 kts | 237° |
| 2026-04-21 20:55 | 49.94822 | -53.55190 | 38177 ft | 389 kts | 237° |
| 2026-04-21 20:56 | 49.92145 | -53.62482 | 38184 ft | 390 kts | 237° |
| 2026-04-21 20:56 | 49.89467 | -53.69755 | 38185 ft | 388 kts | 236° |
| 2026-04-21 20:57 | 49.86786 | -53.77018 | 38184 ft | 387 kts | 237° |
| 2026-04-21 20:57 | 49.84103 | -53.84271 | 38188 ft | 387 kts | 236° |
| 2026-04-21 20:58 | 49.81418 | -53.91513 | 38193 ft | 386 kts | 237° |
| 2026-04-21 20:58 | 49.78740 | -53.98715 | 38195 ft | 386 kts | 237° |
| 2026-04-21 20:59 | 49.76041 | -54.05942 | 38197 ft | 384 kts | 236° |
| 2026-04-21 20:59 | 49.73360 | -54.13110 | 38195 ft | 385 kts | 236° |
| 2026-04-21 21:00 | 49.70665 | -54.20292 | 38198 ft | 386 kts | 236° |
| 2026-04-21 21:00 | 49.67952 | -54.27499 | 38200 ft | 386 kts | 237° |
| 2026-04-21 21:01 | 49.65258 | -54.34640 | 38195 ft | 385 kts | 236° |
| 2026-04-21 21:01 | 49.62548 | -54.41799 | 38199 ft | 384 kts | 236° |
| 2026-04-21 21:02 | 49.59827 | -54.48969 | 38208 ft | 385 kts | 236° |
| 2026-04-21 21:02 | 49.57148 | -54.56019 | 38209 ft | 382 kts | 236° |
| 2026-04-21 21:03 | 49.54444 | -54.63113 | 38202 ft | 384 kts | 236° |
| 2026-04-21 21:03 | 49.51742 | -54.70163 | 38206 ft | 382 kts | 235° |
| 2026-04-21 21:04 | 49.49040 | -54.77215 | 38200 ft | 382 kts | 235° |
| 2026-04-21 21:04 | 49.46343 | -54.84226 | 38207 ft | 381 kts | 235° |
| 2026-04-21 21:05 | 49.43639 | -54.91243 | 38212 ft | 381 kts | 234° |
| 2026-04-21 21:05 | 49.40946 | -54.98210 | 38210 ft | 381 kts | 234° |
| 2026-04-21 21:06 | 49.38228 | -55.05210 | 38210 ft | 382 kts | 234° |
| 2026-04-21 21:06 | 49.35518 | -55.12188 | 38204 ft | 380 kts | 235° |
| 2026-04-21 21:07 | 49.32808 | -55.19140 | 38200 ft | 381 kts | 234° |
| 2026-04-21 21:07 | 49.30094 | -55.26094 | 38209 ft | 383 kts | 234° |
| 2026-04-21 21:08 | 49.27346 | -55.33104 | 38202 ft | 382 kts | 234° |
| 2026-04-21 21:08 | 49.24615 | -55.40063 | 38197 ft | 383 kts | 234° |
| 2026-04-21 21:09 | 49.21853 | -55.47065 | 38188 ft | 383 kts | 235° |
| 2026-04-21 21:09 | 49.19103 | -55.54048 | 38189 ft | 383 kts | 234° |
| 2026-04-21 21:10 | 49.16347 | -55.60993 | 38190 ft | 382 kts | 234° |
| 2026-04-21 21:10 | 49.13555 | -55.68037 | 38180 ft | 384 kts | 233° |
| 2026-04-21 21:11 | 49.10780 | -55.74995 | 38180 ft | 382 kts | 234° |
| 2026-04-21 21:11 | 49.08002 | -55.81959 | 38178 ft | 385 kts | 233° |
| 2026-04-21 21:12 | 49.05206 | -55.88943 | 38172 ft | 382 kts | 234° |
| 2026-04-21 21:12 | 49.02420 | -55.95886 | 38174 ft | 384 kts | 234° |
| 2026-04-21 21:13 | 48.99638 | -56.02808 | 38172 ft | 383 kts | 234° |
| 2026-04-21 21:13 | 48.96836 | -56.09754 | 38169 ft | 385 kts | 233° |
| 2026-04-21 21:14 | 48.94024 | -56.16700 | 38178 ft | 384 kts | 233° |
| 2026-04-21 21:14 | 48.91227 | -56.23605 | 38164 ft | 382 kts | 233° |
| 2026-04-21 21:15 | 48.88430 | -56.30499 | 38180 ft | 383 kts | 233° |
| 2026-04-21 21:15 | 48.85613 | -56.37407 | 38168 ft | 383 kts | 233° |
| 2026-04-21 21:16 | 48.82801 | -56.44272 | 38172 ft | 383 kts | 233° |
| 2026-04-21 21:16 | 48.79978 | -56.51172 | 38184 ft | 381 kts | 233° |
| 2026-04-21 21:17 | 48.77175 | -56.58013 | 38173 ft | 383 kts | 232° |
| 2026-04-21 21:17 | 48.74352 | -56.64862 | 38176 ft | 382 kts | 233° |
| 2026-04-21 21:18 | 48.71523 | -56.71720 | 38170 ft | 384 kts | 232° |
| 2026-04-21 21:18 | 48.68708 | -56.78524 | 38164 ft | 383 kts | 232° |
| 2026-04-21 21:19 | 48.65851 | -56.85401 | 38158 ft | 383 kts | 232° |
| 2026-04-21 21:19 | 48.63026 | -56.92195 | 38152 ft | 383 kts | 232° |
| 2026-04-21 21:20 | 48.60182 | -56.99014 | 38160 ft | 383 kts | 232° |
| 2026-04-21 21:20 | 48.57336 | -57.05833 | 38150 ft | 385 kts | 232° |
| 2026-04-21 21:21 | 48.54479 | -57.12644 | 38154 ft | 384 kts | 232° |
| 2026-04-21 21:21 | 48.51610 | -57.19468 | 38151 ft | 385 kts | 232° |
| 2026-04-21 21:22 | 48.48734 | -57.26290 | 38168 ft | 384 kts | 232° |
| 2026-04-21 21:22 | 48.45846 | -57.33134 | 38159 ft | 386 kts | 231° |
| 2026-04-21 21:23 | 48.42972 | -57.39922 | 38166 ft | 386 kts | 232° |
| 2026-04-21 21:23 | 48.40073 | -57.46744 | 38165 ft | 386 kts | 232° |
| 2026-04-21 21:24 | 48.37178 | -57.53558 | 38178 ft | 387 kts | 231° |
| 2026-04-21 21:24 | 48.34279 | -57.60352 | 38162 ft | 384 kts | 232° |
| 2026-04-21 21:25 | 48.31379 | -57.67125 | 38153 ft | 384 kts | 231° |
| 2026-04-21 21:25 | 48.28469 | -57.73923 | 38377 ft | 388 kts | 231° |
| 2026-04-21 21:26 | 48.27003 | -57.77324 | 38534 ft | 388 kts | 231° |
| 2026-04-21 21:26 | 48.25530 | -57.80756 | 38699 ft | 388 kts | 231° |
| 2026-04-21 21:26 | 48.22568 | -57.87612 | 38902 ft | 392 kts | 232° |
| 2026-04-21 21:27 | 48.21092 | -57.91042 | 39139 ft | 389 kts | 232° |
| 2026-04-21 21:27 | 48.19651 | -57.94382 | 39558 ft | 381 kts | 232° |
| 2026-04-21 21:27 | 48.18222 | -57.97683 | 39791 ft | 379 kts | 231° |
| 2026-04-21 21:27 | 48.16772 | -58.01035 | 39851 ft | 381 kts | 231° |
| 2026-04-21 21:28 | 48.13883 | -58.07673 | 39995 ft | 384 kts | 232° |
| 2026-04-21 21:28 | 48.10934 | -58.14452 | 40131 ft | 387 kts | 232° |
| 2026-04-21 21:29 | 48.09466 | -58.17812 | 40180 ft | 389 kts | 231° |
| 2026-04-21 21:29 | 48.06483 | -58.24650 | 40188 ft | 396 kts | 232° |
| 2026-04-21 21:30 | 48.03437 | -58.31598 | 40193 ft | 402 kts | 232° |
| 2026-04-21 21:30 | 48.00350 | -58.38626 | 40190 ft | 401 kts | 233° |
| 2026-04-21 21:31 | 47.97301 | -58.45570 | 40192 ft | 402 kts | 232° |
| 2026-04-21 21:31 | 47.94225 | -58.52536 | 40195 ft | 401 kts | 232° |
| 2026-04-21 21:32 | 47.91134 | -58.59524 | 40209 ft | 403 kts | 232° |
| 2026-04-21 21:32 | 47.88035 | -58.66509 | 40213 ft | 404 kts | 231° |
| 2026-04-21 21:33 | 47.84921 | -58.73503 | 40213 ft | 403 kts | 231° |
| 2026-04-21 21:33 | 47.81832 | -58.80446 | 40212 ft | 403 kts | 231° |
| 2026-04-21 21:34 | 47.78708 | -58.87422 | 40212 ft | 403 kts | 232° |
| 2026-04-21 21:34 | 47.75611 | -58.94336 | 40218 ft | 402 kts | 231° |
| 2026-04-21 21:35 | 47.72492 | -59.01288 | 40219 ft | 403 kts | 231° |
| 2026-04-21 21:35 | 47.69379 | -59.08194 | 40235 ft | 404 kts | 231° |
| 2026-04-21 21:36 | 47.66238 | -59.15145 | 40240 ft | 406 kts | 231° |
| 2026-04-21 21:36 | 47.63097 | -59.22083 | 40244 ft | 406 kts | 231° |
| 2026-04-21 21:37 | 47.59939 | -59.29033 | 40250 ft | 407 kts | 231° |
| 2026-04-21 21:37 | 47.56796 | -59.35940 | 40261 ft | 407 kts | 231° |
| 2026-04-21 21:38 | 47.53639 | -59.42865 | 40280 ft | 408 kts | 231° |
| 2026-04-21 21:38 | 47.50456 | -59.49827 | 40279 ft | 408 kts | 231° |
| 2026-04-21 21:39 | 47.47282 | -59.56743 | 40293 ft | 408 kts | 231° |
| 2026-04-21 21:39 | 47.44087 | -59.63698 | 40291 ft | 410 kts | 231° |
| 2026-04-21 21:40 | 47.40874 | -59.70663 | 40286 ft | 409 kts | 231° |
| 2026-04-21 21:40 | 47.37672 | -59.77593 | 40305 ft | 410 kts | 231° |
| 2026-04-21 21:41 | 47.34473 | -59.84502 | 40308 ft | 410 kts | 231° |
| 2026-04-21 21:41 | 47.31260 | -59.91431 | 40305 ft | 410 kts | 231° |
| 2026-04-21 21:42 | 47.28024 | -59.98372 | 40317 ft | 410 kts | 230° |
| 2026-04-21 21:42 | 47.24822 | -60.05240 | 40313 ft | 409 kts | 230° |
| 2026-04-21 21:43 | 47.21595 | -60.12141 | 40321 ft | 411 kts | 230° |
| 2026-04-21 21:43 | 47.18350 | -60.19048 | 40308 ft | 411 kts | 231° |
| 2026-04-21 21:44 | 47.15116 | -60.25926 | 40320 ft | 411 kts | 231° |
| 2026-04-21 21:44 | 47.11872 | -60.32812 | 40311 ft | 412 kts | 231° |
| 2026-04-21 21:45 | 47.08608 | -60.39717 | 40320 ft | 411 kts | 231° |
| 2026-04-21 21:45 | 47.05341 | -60.46624 | 40310 ft | 410 kts | 230° |
| 2026-04-21 21:46 | 47.02092 | -60.53458 | 40309 ft | 412 kts | 231° |
| 2026-04-21 21:46 | 46.98798 | -60.60380 | 40307 ft | 413 kts | 231° |
| 2026-04-21 21:47 | 46.95501 | -60.67286 | 40305 ft | 413 kts | 230° |
| 2026-04-21 21:47 | 46.92224 | -60.74135 | 40300 ft | 413 kts | 230° |
| 2026-04-21 21:48 | 46.88924 | -60.81010 | 40301 ft | 413 kts | 230° |
| 2026-04-21 21:48 | 46.85628 | -60.87875 | 40287 ft | 413 kts | 230° |
| 2026-04-21 21:49 | 46.82345 | -60.94681 | 40302 ft | 414 kts | 230° |
| 2026-04-21 21:49 | 46.79018 | -61.01566 | 40310 ft | 413 kts | 230° |
| 2026-04-21 21:50 | 46.75718 | -61.08380 | 40317 ft | 415 kts | 230° |
| 2026-04-21 21:50 | 46.72383 | -61.15251 | 40314 ft | 414 kts | 230° |
| 2026-04-21 21:51 | 46.69079 | -61.22037 | 40325 ft | 414 kts | 230° |
| 2026-04-21 21:51 | 46.65763 | -61.28828 | 40318 ft | 415 kts | 230° |
| 2026-04-21 21:52 | 46.62429 | -61.35646 | 40329 ft | 413 kts | 230° |
| 2026-04-21 21:52 | 46.59105 | -61.42426 | 40330 ft | 414 kts | 230° |
| 2026-04-21 21:53 | 46.55775 | -61.49200 | 40340 ft | 414 kts | 230° |
| 2026-04-21 21:53 | 46.52419 | -61.56012 | 40338 ft | 415 kts | 230° |
| 2026-04-21 21:54 | 46.49073 | -61.62782 | 40329 ft | 416 kts | 230° |
| 2026-04-21 21:54 | 46.45697 | -61.69600 | 40335 ft | 417 kts | 230° |
| 2026-04-21 21:55 | 46.42318 | -61.76410 | 40323 ft | 417 kts | 230° |
| 2026-04-21 21:55 | 46.38943 | -61.83194 | 40330 ft | 416 kts | 230° |
| 2026-04-21 21:56 | 46.35539 | -61.90015 | 40336 ft | 417 kts | 229° |
| 2026-04-21 21:56 | 46.32165 | -61.96768 | 40339 ft | 417 kts | 230° |
| 2026-04-21 21:57 | 46.28769 | -62.03538 | 40336 ft | 418 kts | 230° |
| 2026-04-21 21:57 | 46.25348 | -62.10350 | 40337 ft | 417 kts | 230° |
| 2026-04-21 21:58 | 46.21950 | -62.17099 | 40339 ft | 419 kts | 230° |
| 2026-04-21 21:58 | 46.18507 | -62.23918 | 40336 ft | 418 kts | 230° |
| 2026-04-21 21:59 | 46.15075 | -62.30699 | 40332 ft | 418 kts | 230° |
| 2026-04-21 21:59 | 46.11626 | -62.37499 | 40329 ft | 421 kts | 230° |
| 2026-04-21 22:00 | 46.08163 | -62.44306 | 40332 ft | 420 kts | 230° |
| 2026-04-21 22:00 | 46.04724 | -62.51055 | 40328 ft | 421 kts | 230° |
| 2026-04-21 22:01 | 46.01246 | -62.57862 | 40330 ft | 422 kts | 230° |
| 2026-04-21 22:01 | 45.97789 | -62.64608 | 40322 ft | 422 kts | 230° |
| 2026-04-21 22:02 | 45.94281 | -62.71439 | 40318 ft | 423 kts | 230° |
| 2026-04-21 22:02 | 45.90781 | -62.78240 | 40316 ft | 423 kts | 230° |
| 2026-04-21 22:03 | 45.87282 | -62.85023 | 40321 ft | 423 kts | 230° |
| 2026-04-21 22:03 | 45.83763 | -62.91826 | 40313 ft | 424 kts | 230° |
| 2026-04-21 22:04 | 45.80238 | -62.98626 | 40314 ft | 424 kts | 230° |
| 2026-04-21 22:04 | 45.76720 | -63.05394 | 40311 ft | 424 kts | 230° |
| 2026-04-21 22:05 | 45.73177 | -63.12194 | 40310 ft | 425 kts | 230° |
| 2026-04-21 22:05 | 45.69624 | -63.19000 | 40309 ft | 425 kts | 230° |
| 2026-04-21 22:06 | 45.66086 | -63.25761 | 39983 ft | 426 kts | 230° |
| 2026-04-21 22:06 | 45.64299 | -63.29169 | 39733 ft | 427 kts | 230° |
| 2026-04-21 22:06 | 45.62525 | -63.32547 | 39485 ft | 426 kts | 230° |
| 2026-04-21 22:06 | 45.60735 | -63.35954 | 39234 ft | 426 kts | 230° |
| 2026-04-21 22:07 | 45.58953 | -63.39340 | 38984 ft | 426 kts | 230° |
| 2026-04-21 22:07 | 45.57178 | -63.42710 | 38737 ft | 426 kts | 230° |
| 2026-04-21 22:07 | 45.55386 | -63.46107 | 38487 ft | 426 kts | 230° |
| 2026-04-21 22:07 | 45.53600 | -63.49488 | 38293 ft | 426 kts | 230° |
| 2026-04-21 22:08 | 45.51800 | -63.52890 | 38277 ft | 425 kts | 230° |
| 2026-04-21 22:08 | 45.48257 | -63.59580 | 38271 ft | 426 kts | 230° |
| 2026-04-21 22:09 | 45.44657 | -63.66357 | 38270 ft | 426 kts | 230° |
| 2026-04-21 22:09 | 45.41042 | -63.73152 | 38271 ft | 427 kts | 230° |
| 2026-04-21 22:10 | 45.37438 | -63.79905 | 38277 ft | 428 kts | 230° |
| 2026-04-21 22:10 | 45.33831 | -63.86647 | 38284 ft | 429 kts | 230° |
| 2026-04-21 22:11 | 45.30214 | -63.93393 | 38284 ft | 428 kts | 230° |
| 2026-04-21 22:11 | 45.26621 | -64.00080 | 38288 ft | 428 kts | 230° |
| 2026-04-21 22:12 | 45.22984 | -64.06829 | 38285 ft | 428 kts | 230° |
| 2026-04-21 22:12 | 45.19379 | -64.13508 | 38269 ft | 428 kts | 230° |
| 2026-04-21 22:13 | 45.15727 | -64.20259 | 38267 ft | 429 kts | 231° |
| 2026-04-21 22:13 | 45.12099 | -64.26949 | 38274 ft | 429 kts | 230° |
| 2026-04-21 22:14 | 45.08453 | -64.33654 | 38276 ft | 429 kts | 231° |
| 2026-04-21 22:14 | 45.04794 | -64.40366 | 38278 ft | 430 kts | 231° |
| 2026-04-21 22:15 | 45.01140 | -64.47051 | 38277 ft | 429 kts | 231° |
| 2026-04-21 22:15 | 44.97480 | -64.53735 | 38280 ft | 430 kts | 231° |
| 2026-04-21 22:16 | 44.93817 | -64.60410 | 38285 ft | 430 kts | 231° |
| 2026-04-21 22:16 | 44.90122 | -64.67127 | 38291 ft | 430 kts | 231° |
| 2026-04-21 22:17 | 44.86491 | -64.73712 | 38290 ft | 418 kts | 231° |
| 2026-04-21 22:17 | 44.84728 | -64.76906 | 38289 ft | 404 kts | 231° |
| 2026-04-21 22:17 | 44.82993 | -64.80042 | 38137 ft | 402 kts | 231° |
| 2026-04-21 22:17 | 44.81288 | -64.83122 | 37887 ft | 402 kts | 231° |
| 2026-04-21 22:18 | 44.79563 | -64.86233 | 37664 ft | 402 kts | 231° |
| 2026-04-21 22:18 | 44.77832 | -64.89352 | 37441 ft | 402 kts | 231° |
| 2026-04-21 22:18 | 44.76121 | -64.92433 | 37220 ft | 402 kts | 231° |
| 2026-04-21 22:18 | 44.74397 | -64.95533 | 36997 ft | 402 kts | 231° |
| 2026-04-21 22:19 | 44.72658 | -64.98656 | 36778 ft | 408 kts | 231° |
| 2026-04-21 22:19 | 44.70869 | -65.01866 | 36556 ft | 422 kts | 231° |
| 2026-04-21 22:19 | 44.69047 | -65.05131 | 36349 ft | 428 kts | 231° |
| 2026-04-21 22:20 | 44.65348 | -65.11750 | 36293 ft | 431 kts | 232° |
| 2026-04-21 22:20 | 44.61646 | -65.18363 | 36286 ft | 431 kts | 232° |
| 2026-04-21 22:21 | 44.57934 | -65.24979 | 36289 ft | 431 kts | 232° |
| 2026-04-21 22:21 | 44.54230 | -65.31558 | 36273 ft | 430 kts | 232° |
| 2026-04-21 22:22 | 44.50523 | -65.38131 | 36273 ft | 430 kts | 232° |
| 2026-04-21 22:22 | 44.46810 | -65.44702 | 36284 ft | 430 kts | 232° |
| 2026-04-21 22:23 | 44.43074 | -65.51297 | 36287 ft | 430 kts | 232° |
| 2026-04-21 22:23 | 44.39352 | -65.57852 | 36286 ft | 430 kts | 233° |
| 2026-04-21 22:24 | 44.35621 | -65.64403 | 36293 ft | 430 kts | 233° |
| 2026-04-21 22:24 | 44.31872 | -65.70974 | 36286 ft | 431 kts | 232° |
| 2026-04-21 22:25 | 44.28106 | -65.77564 | 36290 ft | 432 kts | 232° |
| 2026-04-21 22:25 | 44.24345 | -65.84126 | 36289 ft | 432 kts | 233° |
| 2026-04-21 22:26 | 44.20603 | -65.90642 | 36292 ft | 432 kts | 233° |
| 2026-04-21 22:26 | 44.16839 | -65.97182 | 36290 ft | 433 kts | 233° |
| 2026-04-21 22:27 | 44.13031 | -66.03784 | 36297 ft | 442 kts | 233° |
| 2026-04-21 22:27 | 44.09139 | -66.10513 | 36299 ft | 450 kts | 233° |
| 2026-04-21 22:28 | 44.05215 | -66.17281 | 36300 ft | 451 kts | 233° |
| 2026-04-21 22:28 | 44.01282 | -66.24046 | 36304 ft | 451 kts | 233° |
| 2026-04-21 22:29 | 43.97348 | -66.30801 | 36314 ft | 451 kts | 233° |
| 2026-04-21 22:29 | 43.93389 | -66.37585 | 36314 ft | 451 kts | 233° |
| 2026-04-21 22:30 | 43.89465 | -66.44291 | 36318 ft | 451 kts | 233° |
| 2026-04-21 22:30 | 43.85523 | -66.51011 | 36322 ft | 451 kts | 234° |
| 2026-04-21 22:31 | 43.81584 | -66.57712 | 36321 ft | 451 kts | 234° |
| 2026-04-21 22:31 | 43.77623 | -66.64431 | 36330 ft | 451 kts | 234° |
| 2026-04-21 22:32 | 43.73643 | -66.71171 | 36337 ft | 452 kts | 233° |
| 2026-04-21 22:32 | 43.69656 | -66.77904 | 36335 ft | 457 kts | 233° |
| 2026-04-21 22:33 | 43.65630 | -66.84686 | 36339 ft | 458 kts | 234° |
| 2026-04-21 22:33 | 43.61623 | -66.91480 | 36339 ft | 458 kts | 235° |
| 2026-04-21 22:34 | 43.58009 | -66.98644 | 36338 ft | 455 kts | 241° |
| 2026-04-21 22:34 | 43.54962 | -67.06271 | 36338 ft | 453 kts | 247° |
| 2026-04-21 22:35 | 43.52520 | -67.14188 | 36334 ft | 451 kts | 252° |
| 2026-04-21 22:35 | 43.50253 | -67.22250 | 36336 ft | 450 kts | 252° |
| 2026-04-21 22:36 | 43.46873 | -67.34241 | 36344 ft | 450 kts | 252° |
| 2026-04-21 22:36 | 43.44613 | -67.42218 | 36337 ft | 449 kts | 252° |
| 2026-04-21 22:37 | 43.42353 | -67.50174 | 36341 ft | 449 kts | 253° |
| 2026-04-21 22:37 | 43.40084 | -67.58134 | 36334 ft | 450 kts | 253° |
| 2026-04-21 22:38 | 43.37796 | -67.66130 | 36354 ft | 449 kts | 252° |
| 2026-04-21 22:38 | 43.35514 | -67.74078 | 36346 ft | 448 kts | 252° |
| 2026-04-21 22:39 | 43.33231 | -67.82014 | 36343 ft | 448 kts | 252° |
| 2026-04-21 22:39 | 43.30946 | -67.89928 | 36346 ft | 447 kts | 252° |
| 2026-04-21 22:40 | 43.28653 | -67.97849 | 36348 ft | 448 kts | 253° |
| 2026-04-21 22:40 | 43.26344 | -68.05795 | 36351 ft | 448 kts | 253° |
| 2026-04-21 22:41 | 43.24048 | -68.13673 | 36348 ft | 449 kts | 253° |
| 2026-04-21 22:41 | 43.21719 | -68.21630 | 36353 ft | 448 kts | 253° |
| 2026-04-21 22:42 | 43.19417 | -68.29485 | 36349 ft | 448 kts | 253° |
| 2026-04-21 22:42 | 43.17088 | -68.37400 | 36356 ft | 449 kts | 253° |
| 2026-04-21 22:43 | 43.14756 | -68.45302 | 36347 ft | 449 kts | 253° |
| 2026-04-21 22:43 | 43.12425 | -68.53178 | 36359 ft | 447 kts | 253° |
| 2026-04-21 22:44 | 43.10095 | -68.61021 | 36352 ft | 447 kts | 254° |
| 2026-04-21 22:44 | 43.07755 | -68.68880 | 36357 ft | 448 kts | 253° |
| 2026-04-21 22:45 | 43.05403 | -68.76755 | 36356 ft | 449 kts | 253° |
| 2026-04-21 22:45 | 43.03042 | -68.84629 | 36347 ft | 449 kts | 253° |
| 2026-04-21 22:46 | 43.00674 | -68.92505 | 36349 ft | 449 kts | 253° |
| 2026-04-21 22:46 | 42.98301 | -69.00378 | 36353 ft | 450 kts | 253° |
| 2026-04-21 22:47 | 42.95916 | -69.08266 | 36345 ft | 449 kts | 253° |
| 2026-04-21 22:47 | 42.93546 | -69.16074 | 36351 ft | 449 kts | 254° |
| 2026-04-21 22:48 | 42.91153 | -69.23932 | 36357 ft | 448 kts | 254° |
| 2026-04-21 22:48 | 42.88759 | -69.31781 | 36266 ft | 449 kts | 254° |
| 2026-04-21 22:49 | 42.87564 | -69.35686 | 36096 ft | 448 kts | 254° |
| 2026-04-21 22:49 | 42.86370 | -69.39580 | 35919 ft | 448 kts | 255° |
| 2026-04-21 22:49 | 42.85180 | -69.43447 | 35745 ft | 444 kts | 255° |
| 2026-04-21 22:49 | 42.83990 | -69.47317 | 35570 ft | 441 kts | 255° |
| 2026-04-21 22:50 | 42.82812 | -69.51143 | 35398 ft | 442 kts | 255° |
| 2026-04-21 22:50 | 42.81632 | -69.54974 | 35223 ft | 443 kts | 255° |
| 2026-04-21 22:50 | 42.80444 | -69.58832 | 35053 ft | 442 kts | 255° |
| 2026-04-21 22:50 | 42.79254 | -69.62675 | 34877 ft | 441 kts | 256° |
| 2026-04-21 22:51 | 42.78064 | -69.66518 | 34711 ft | 441 kts | 255° |
| 2026-04-21 22:51 | 42.76881 | -69.70342 | 34529 ft | 442 kts | 256° |
| 2026-04-21 22:51 | 42.75671 | -69.74238 | 34363 ft | 442 kts | 256° |
| 2026-04-21 22:51 | 42.74480 | -69.78062 | 34181 ft | 442 kts | 256° |
| 2026-04-21 22:52 | 42.73289 | -69.81898 | 33983 ft | 443 kts | 256° |
| 2026-04-21 22:52 | 42.72089 | -69.85742 | 33785 ft | 444 kts | 256° |
| 2026-04-21 22:52 | 42.70889 | -69.89587 | 33584 ft | 443 kts | 256° |
| 2026-04-21 22:52 | 42.69676 | -69.93466 | 33382 ft | 447 kts | 256° |
| 2026-04-21 22:53 | 42.68458 | -69.97358 | 33179 ft | 450 kts | 256° |
| 2026-04-21 22:53 | 42.67229 | -70.01269 | 32982 ft | 451 kts | 256° |
| 2026-04-21 22:53 | 42.66002 | -70.05167 | 32745 ft | 449 kts | 256° |
| 2026-04-21 22:53 | 42.64766 | -70.09057 | 32525 ft | 448 kts | 256° |
| 2026-04-21 22:54 | 42.63542 | -70.12905 | 32328 ft | 444 kts | 256° |
| 2026-04-21 22:54 | 42.62318 | -70.16747 | 32121 ft | 445 kts | 257° |
| 2026-04-21 22:54 | 42.61094 | -70.20592 | 31913 ft | 444 kts | 257° |
| 2026-04-21 22:54 | 42.59877 | -70.24416 | 31707 ft | 445 kts | 256° |
| 2026-04-21 22:55 | 42.58640 | -70.28297 | 31497 ft | 445 kts | 257° |
| 2026-04-21 22:55 | 42.57413 | -70.32129 | 31291 ft | 444 kts | 257° |
| 2026-04-21 22:55 | 42.56186 | -70.35966 | 31078 ft | 445 kts | 257° |
| 2026-04-21 22:55 | 42.54963 | -70.39774 | 30869 ft | 446 kts | 257° |
| 2026-04-21 22:56 | 42.53709 | -70.43679 | 30653 ft | 446 kts | 257° |
| 2026-04-21 22:56 | 42.52476 | -70.47495 | 30443 ft | 446 kts | 257° |
| 2026-04-21 22:56 | 42.51235 | -70.51336 | 30223 ft | 446 kts | 257° |
| 2026-04-21 22:56 | 42.49994 | -70.55175 | 29998 ft | 446 kts | 257° |
| 2026-04-21 22:57 | 42.48752 | -70.59025 | 29778 ft | 447 kts | 257° |
| 2026-04-21 22:57 | 42.47504 | -70.62896 | 29551 ft | 447 kts | 257° |
| 2026-04-21 22:57 | 42.46253 | -70.66763 | 29325 ft | 448 kts | 256° |
| 2026-04-21 22:57 | 42.45010 | -70.70602 | 29101 ft | 447 kts | 256° |
| 2026-04-21 22:58 | 42.43750 | -70.74489 | 28875 ft | 449 kts | 256° |
| 2026-04-21 22:58 | 42.42478 | -70.78390 | 28646 ft | 449 kts | 256° |
| 2026-04-21 22:58 | 42.41217 | -70.82256 | 28418 ft | 449 kts | 256° |
| 2026-04-21 22:58 | 42.39949 | -70.86143 | 28313 ft | 448 kts | 255° |
| 2026-04-21 22:59 | 42.37407 | -70.93916 | 28302 ft | 450 kts | 256° |
| 2026-04-21 22:59 | 42.35111 | -71.01753 | 28297 ft | 443 kts | 260° |
| 2026-04-21 23:00 | 42.33234 | -71.09560 | 28293 ft | 416 kts | 262° |
| 2026-04-21 23:00 | 42.31508 | -71.16801 | 28293 ft | 404 kts | 263° |
| 2026-04-21 23:01 | 42.30647 | -71.20439 | 28072 ft | 402 kts | 262° |
| 2026-04-21 23:01 | 42.29803 | -71.23992 | 27819 ft | 401 kts | 262° |
| 2026-04-21 23:01 | 42.28951 | -71.27575 | 27562 ft | 397 kts | 262° |
| 2026-04-21 23:01 | 42.28101 | -71.31136 | 27306 ft | 396 kts | 262° |
| 2026-04-21 23:02 | 42.27262 | -71.34643 | 27055 ft | 394 kts | 262° |
| 2026-04-21 23:02 | 42.26415 | -71.38174 | 26794 ft | 392 kts | 262° |
| 2026-04-21 23:02 | 42.25579 | -71.41650 | 26539 ft | 390 kts | 262° |
| 2026-04-21 23:02 | 42.24746 | -71.45112 | 26278 ft | 387 kts | 262° |
| 2026-04-21 23:03 | 42.23911 | -71.48570 | 26013 ft | 386 kts | 262° |
| 2026-04-21 23:03 | 42.23078 | -71.52022 | 25754 ft | 384 kts | 262° |
| 2026-04-21 23:03 | 42.22247 | -71.55458 | 25498 ft | 382 kts | 262° |
| 2026-04-21 23:03 | 42.21423 | -71.58858 | 25241 ft | 381 kts | 262° |
| 2026-04-21 23:04 | 42.20607 | -71.62224 | 24991 ft | 379 kts | 262° |
| 2026-04-21 23:04 | 42.19788 | -71.65590 | 24736 ft | 378 kts | 262° |
| 2026-04-21 23:04 | 42.18968 | -71.68965 | 24489 ft | 377 kts | 262° |
| 2026-04-21 23:04 | 42.18154 | -71.72302 | 24240 ft | 376 kts | 262° |
| 2026-04-21 23:05 | 42.17343 | -71.75629 | 23978 ft | 374 kts | 262° |
| 2026-04-21 23:05 | 42.16524 | -71.78979 | 23726 ft | 372 kts | 262° |
| 2026-04-21 23:05 | 42.15711 | -71.82296 | 23483 ft | 372 kts | 262° |
| 2026-04-21 23:05 | 42.14907 | -71.85586 | 23221 ft | 370 kts | 262° |
| 2026-04-21 23:06 | 42.14093 | -71.88897 | 22981 ft | 368 kts | 262° |
| 2026-04-21 23:06 | 42.13294 | -71.92148 | 22754 ft | 366 kts | 261° |
| 2026-04-21 23:06 | 42.12491 | -71.95418 | 22509 ft | 365 kts | 262° |
| 2026-04-21 23:06 | 42.11695 | -71.98646 | 22266 ft | 363 kts | 261° |
| 2026-04-21 23:07 | 42.10903 | -72.01858 | 22025 ft | 361 kts | 261° |
| 2026-04-21 23:07 | 42.10107 | -72.05076 | 21775 ft | 361 kts | 261° |
| 2026-04-21 23:07 | 42.09312 | -72.08291 | 21536 ft | 360 kts | 261° |
| 2026-04-21 23:07 | 42.08523 | -72.11478 | 21303 ft | 359 kts | 261° |
| 2026-04-21 23:08 | 42.07733 | -72.14661 | 21005 ft | 358 kts | 261° |
| 2026-04-21 23:08 | 42.06942 | -72.17840 | 20639 ft | 356 kts | 261° |
| 2026-04-21 23:08 | 42.06159 | -72.20982 | 20303 ft | 354 kts | 261° |
| 2026-04-21 23:08 | 42.05376 | -72.24117 | 19956 ft | 351 kts | 261° |
| 2026-04-21 23:09 | 42.04606 | -72.27210 | 19632 ft | 349 kts | 261° |
| 2026-04-21 23:09 | 42.03829 | -72.30315 | 19233 ft | 347 kts | 261° |
| 2026-04-21 23:09 | 42.03068 | -72.33352 | 18818 ft | 345 kts | 261° |
| 2026-04-21 23:09 | 42.02299 | -72.36427 | 18470 ft | 343 kts | 261° |
| 2026-04-21 23:10 | 42.01543 | -72.39435 | 18058 ft | 341 kts | 261° |
| 2026-04-21 23:10 | 42.00784 | -72.42462 | 17680 ft | 339 kts | 260° |
| 2026-04-21 23:10 | 42.00036 | -72.45433 | 17314 ft | 337 kts | 260° |
| 2026-04-21 23:10 | 41.99279 | -72.48438 | 16938 ft | 337 kts | 260° |
| 2026-04-21 23:11 | 41.98521 | -72.51447 | 16556 ft | 335 kts | 260° |
| 2026-04-21 23:11 | 41.97780 | -72.54383 | 16186 ft | 333 kts | 260° |
| 2026-04-21 23:11 | 41.97051 | -72.57262 | 15967 ft | 331 kts | 260° |
| 2026-04-21 23:11 | 41.96291 | -72.60261 | 15970 ft | 331 kts | 260° |
| 2026-04-21 23:12 | 41.95550 | -72.63187 | 15964 ft | 332 kts | 260° |
| 2026-04-21 23:12 | 41.94793 | -72.66174 | 15965 ft | 332 kts | 259° |
| 2026-04-21 23:12 | 41.94051 | -72.69089 | 15968 ft | 331 kts | 260° |
| 2026-04-21 23:12 | 41.93341 | -72.72032 | 15969 ft | 330 kts | 261° |
| 2026-04-21 23:13 | 41.92643 | -72.74989 | 15968 ft | 330 kts | 261° |
| 2026-04-21 23:13 | 41.91948 | -72.77936 | 15969 ft | 331 kts | 261° |
| 2026-04-21 23:13 | 41.91252 | -72.80878 | 15969 ft | 331 kts | 261° |
| 2026-04-21 23:13 | 41.90561 | -72.83785 | 15973 ft | 331 kts | 261° |
| 2026-04-21 23:14 | 41.89861 | -72.86724 | 15965 ft | 330 kts | 260° |
| 2026-04-21 23:14 | 41.89149 | -72.89709 | 15963 ft | 330 kts | 260° |
| 2026-04-21 23:14 | 41.88486 | -72.92478 | 15963 ft | 330 kts | 261° |
| 2026-04-21 23:14 | 41.87779 | -72.95430 | 15966 ft | 331 kts | 261° |
| 2026-04-21 23:15 | 41.87077 | -72.98354 | 16002 ft | 331 kts | 261° |
| 2026-04-21 23:15 | 41.86363 | -73.01328 | 15986 ft | 331 kts | 260° |
| 2026-04-21 23:15 | 41.85658 | -73.04249 | 15983 ft | 332 kts | 261° |
| 2026-04-21 23:15 | 41.84945 | -73.07212 | 15986 ft | 332 kts | 260° |
| 2026-04-21 23:16 | 41.84240 | -73.10135 | 15962 ft | 331 kts | 261° |
| 2026-04-21 23:16 | 41.83524 | -73.13100 | 15948 ft | 331 kts | 260° |
| 2026-04-21 23:16 | 41.82821 | -73.16009 | 15955 ft | 330 kts | 260° |
| 2026-04-21 23:16 | 41.82104 | -73.18967 | 15942 ft | 330 kts | 260° |
| 2026-04-21 23:17 | 41.81392 | -73.21903 | 15944 ft | 331 kts | 260° |
| 2026-04-21 23:17 | 41.80683 | -73.24824 | 15946 ft | 330 kts | 260° |
| 2026-04-21 23:17 | 41.79962 | -73.27786 | 15938 ft | 330 kts | 260° |
| 2026-04-21 23:17 | 41.79257 | -73.30678 | 15937 ft | 330 kts | 260° |
| 2026-04-21 23:18 | 41.78537 | -73.33626 | 15936 ft | 329 kts | 260° |
| 2026-04-21 23:18 | 41.77832 | -73.36523 | 15934 ft | 330 kts | 260° |
| 2026-04-21 23:18 | 41.77120 | -73.39432 | 15935 ft | 331 kts | 260° |
| 2026-04-21 23:18 | 41.76395 | -73.42402 | 15931 ft | 330 kts | 260° |
| 2026-04-21 23:19 | 41.75682 | -73.45306 | 15929 ft | 329 kts | 260° |
| 2026-04-21 23:19 | 41.74970 | -73.48212 | 15929 ft | 330 kts | 260° |
| 2026-04-21 23:19 | 41.74248 | -73.51147 | 15932 ft | 329 kts | 260° |
| 2026-04-21 23:19 | 41.73529 | -73.54067 | 15952 ft | 330 kts | 260° |
| 2026-04-21 23:20 | 41.72813 | -73.56981 | 15930 ft | 330 kts | 260° |
| 2026-04-21 23:20 | 41.72098 | -73.59876 | 15917 ft | 330 kts | 260° |
| 2026-04-21 23:20 | 41.71372 | -73.62820 | 15927 ft | 330 kts | 260° |
| 2026-04-21 23:20 | 41.70654 | -73.65721 | 15919 ft | 331 kts | 259° |
| 2026-04-21 23:21 | 41.69929 | -73.68649 | 15966 ft | 331 kts | 259° |
| 2026-04-21 23:21 | 41.69200 | -73.71584 | 15920 ft | 330 kts | 259° |
| 2026-04-21 23:21 | 41.68474 | -73.74526 | 15943 ft | 330 kts | 260° |
| 2026-04-21 23:21 | 41.67756 | -73.77435 | 15917 ft | 330 kts | 259° |
| 2026-04-21 23:22 | 41.67033 | -73.80328 | 15659 ft | 330 kts | 259° |
| 2026-04-21 23:22 | 41.66305 | -73.83256 | 15301 ft | 327 kts | 260° |
| 2026-04-21 23:22 | 41.65627 | -73.86116 | 14952 ft | 324 kts | 260° |
| 2026-04-21 23:22 | 41.64955 | -73.88982 | 14583 ft | 322 kts | 260° |
| 2026-04-21 23:23 | 41.64289 | -73.91813 | 14163 ft | 320 kts | 260° |
| 2026-04-21 23:23 | 41.63628 | -73.94614 | 13736 ft | 317 kts | 260° |
| 2026-04-21 23:23 | 41.62958 | -73.97450 | 13309 ft | 316 kts | 259° |
| 2026-04-21 23:23 | 41.62307 | -74.00199 | 12889 ft | 315 kts | 259° |
| 2026-04-21 23:24 | 41.61639 | -74.03014 | 12460 ft | 314 kts | 259° |
| 2026-04-21 23:24 | 41.60978 | -74.05795 | 12031 ft | 313 kts | 259° |
| 2026-04-21 23:24 | 41.60319 | -74.08563 | 11609 ft | 312 kts | 259° |
| 2026-04-21 23:24 | 41.59663 | -74.11318 | 11178 ft | 312 kts | 259° |
| 2026-04-21 23:25 | 41.59003 | -74.14079 | 10747 ft | 311 kts | 259° |
| 2026-04-21 23:25 | 41.58347 | -74.16814 | 10315 ft | 307 kts | 259° |
| 2026-04-21 23:25 | 41.57703 | -74.19492 | 9937 ft | 299 kts | 259° |
| 2026-04-21 23:25 | 41.57088 | -74.22021 | 9826 ft | 272 kts | 259° |
| 2026-04-21 23:26 | 41.56519 | -74.24376 | 9823 ft | 267 kts | 259° |
| 2026-04-21 23:26 | 41.55954 | -74.26753 | 9611 ft | 266 kts | 259° |
| 2026-04-21 23:26 | 41.55391 | -74.29123 | 9308 ft | 266 kts | 259° |
| 2026-04-21 23:26 | 41.54796 | -74.31461 | 8997 ft | 267 kts | 252° |
| 2026-04-21 23:27 | 41.53647 | -74.33451 | 8627 ft | 281 kts | 224° |
| 2026-04-21 23:27 | 41.51868 | -74.34630 | 8180 ft | 290 kts | 204° |
| 2026-04-21 23:27 | 41.49964 | -74.35423 | 7734 ft | 290 kts | 201° |
| 2026-04-21 23:27 | 41.48040 | -74.36205 | 7276 ft | 285 kts | 201° |
| 2026-04-21 23:28 | 41.46204 | -74.36965 | 6965 ft | 275 kts | 201° |
| 2026-04-21 23:28 | 41.44392 | -74.37728 | 6936 ft | 273 kts | 202° |
| 2026-04-21 23:28 | 41.42565 | -74.38509 | 6857 ft | 273 kts | 202° |
| 2026-04-21 23:28 | 41.40775 | -74.39281 | 6666 ft | 271 kts | 202° |
| 2026-04-21 23:29 | 41.39165 | -74.39976 | 6479 ft | 269 kts | 202° |
| 2026-04-21 23:29 | 41.37392 | -74.40741 | 6271 ft | 268 kts | 201° |
| 2026-04-21 23:29 | 41.35620 | -74.41502 | 6099 ft | 266 kts | 201° |
| 2026-04-21 23:29 | 41.33870 | -74.42251 | 5941 ft | 264 kts | 201° |
| 2026-04-21 23:30 | 41.32118 | -74.43002 | 5914 ft | 264 kts | 201° |
| 2026-04-21 23:30 | 41.30359 | -74.43755 | 5928 ft | 265 kts | 201° |
| 2026-04-21 23:30 | 41.28603 | -74.44502 | 5921 ft | 265 kts | 200° |
| 2026-04-21 23:30 | 41.26757 | -74.44737 | 5913 ft | 272 kts | 175° |
| 2026-04-21 23:31 | 41.24969 | -74.43832 | 5932 ft | 277 kts | 153° |
| 2026-04-21 23:31 | 41.23333 | -74.42451 | 5933 ft | 278 kts | 149° |
| 2026-04-21 23:31 | 41.21746 | -74.41017 | 5926 ft | 278 kts | 148° |
| 2026-04-21 23:31 | 41.20139 | -74.39548 | 5922 ft | 278 kts | 148° |
| 2026-04-21 23:32 | 41.18550 | -74.38090 | 5933 ft | 278 kts | 148° |
| 2026-04-21 23:32 | 41.16949 | -74.36623 | 5828 ft | 278 kts | 148° |
| 2026-04-21 23:32 | 41.15370 | -74.35179 | 5632 ft | 276 kts | 148° |
| 2026-04-21 23:32 | 41.13790 | -74.33730 | 5434 ft | 275 kts | 147° |
| 2026-04-21 23:33 | 41.12235 | -74.32307 | 5231 ft | 273 kts | 148° |
| 2026-04-21 23:33 | 41.10659 | -74.30866 | 5023 ft | 271 kts | 148° |
| 2026-04-21 23:33 | 41.09114 | -74.29452 | 4948 ft | 270 kts | 148° |
| 2026-04-21 23:33 | 41.07571 | -74.28040 | 4945 ft | 271 kts | 147° |
| 2026-04-21 23:34 | 41.06007 | -74.26608 | 4949 ft | 271 kts | 147° |
| 2026-04-21 23:34 | 41.04433 | -74.25169 | 4954 ft | 271 kts | 148° |
| 2026-04-21 23:34 | 41.02884 | -74.23749 | 4958 ft | 271 kts | 147° |
| 2026-04-21 23:34 | 41.01336 | -74.22336 | 4942 ft | 272 kts | 147° |
| 2026-04-21 23:35 | 40.99770 | -74.20904 | 4817 ft | 272 kts | 147° |
| 2026-04-21 23:35 | 40.98215 | -74.19484 | 4693 ft | 271 kts | 147° |
| 2026-04-21 23:35 | 40.96672 | -74.18075 | 4563 ft | 262 kts | 148° |
| 2026-04-21 23:35 | 40.95190 | -74.16711 | 4429 ft | 251 kts | 147° |
| 2026-04-21 23:36 | 40.93789 | -74.15416 | 4295 ft | 241 kts | 147° |
| 2026-04-21 23:36 | 40.92446 | -74.14166 | 4160 ft | 231 kts | 147° |
| 2026-04-21 23:36 | 40.91173 | -74.12978 | 4028 ft | 223 kts | 147° |
| 2026-04-21 23:36 | 40.89904 | -74.11796 | 3983 ft | 222 kts | 147° |
| 2026-04-21 23:37 | 40.88836 | -74.10799 | 3910 ft | 222 kts | 147° |
| 2026-04-21 23:37 | 40.87521 | -74.09575 | 3778 ft | 221 kts | 147° |
| 2026-04-21 23:37 | 40.86287 | -74.08433 | 3652 ft | 220 kts | 148° |
| 2026-04-21 23:37 | 40.84932 | -74.07581 | 3499 ft | 214 kts | 174° |
| 2026-04-21 23:38 | 40.83471 | -74.07660 | 3380 ft | 211 kts | 195° |
| 2026-04-21 23:38 | 40.82080 | -74.08281 | 3073 ft | 205 kts | 205° |
| 2026-04-21 23:38 | 40.80833 | -74.09071 | 2662 ft | 197 kts | 207° |
| 2026-04-21 23:38 | 40.79621 | -74.09882 | 2247 ft | 193 kts | 206° |
| 2026-04-21 23:39 | 40.78444 | -74.10648 | 1911 ft | 186 kts | 204° |
| 2026-04-21 23:39 | 40.77325 | -74.11360 | 1744 ft | 169 kts | 204° |
| 2026-04-21 23:39 | 40.76291 | -74.12014 | 1480 ft | 159 kts | 203° |
| 2026-04-21 23:39 | 40.75343 | -74.12614 | 1278 ft | 143 kts | 203° |
| 2026-04-21 23:40 | 40.74490 | -74.13155 | 1047 ft | 129 kts | 202° |
| 2026-04-21 23:40 | 40.73743 | -74.13630 | 856 ft | 116 kts | 202° |
| 2026-04-21 23:40 | 40.73041 | -74.14074 | 729 ft | 116 kts | 202° |
| 2026-04-21 23:40 | 40.72292 | -74.14550 | 594 ft | 117 kts | 203° |
| 2026-04-21 23:41 | 40.71549 | -74.15028 | 438 ft | 117 kts | 202° |
| 2026-04-21 23:41 | 40.70828 | -74.15487 | 269 ft | 118 kts | 202° |
| 2026-04-21 23:41 | 40.70083 | -74.15953 | 107 ft | 117 kts | 202° |
| 2026-04-21 23:41 | 40.69355 | -74.16412 | 13 ft | 108 kts | 206° |
| 2026-04-21 23:42 | 40.68827 | -74.16747 | 13 ft | 59 kts | 206° |
| 2026-04-21 23:42 | 40.68563 | -74.16952 | 13 ft | 35 kts | 229° |
| 2026-04-21 23:42 | 40.68459 | -74.17158 | 13 ft | 14 kts | 241° |
| 2026-04-21 23:42 | 40.68453 | -74.17268 | 13 ft | 12 kts | 291° |
| 2026-04-21 23:43 | 40.68494 | -74.17378 | 13 ft | 13 kts | 298° |
| 2026-04-21 23:43 | 40.68528 | -74.17458 | 13 ft | 4 kts | 304° |
| 2026-04-21 23:43 | 40.68555 | -74.17457 | 13 ft | 6 kts | 16° |
| 2026-04-21 23:43 | 40.68613 | -74.17425 | 13 ft | 10 kts | 26° |
| 2026-04-21 23:44 | 40.68691 | -74.17375 | 13 ft | 13 kts | 26° |
| 2026-04-21 23:44 | 40.68785 | -74.17318 | 13 ft | 16 kts | 25° |
| 2026-04-21 23:44 | 40.68895 | -74.17248 | 13 ft | 18 kts | 26° |
| 2026-04-21 23:44 | 40.68988 | -74.17215 | 13 ft | 11 kts | 322° |
| 2026-04-21 23:45 | 40.69043 | -74.17348 | 13 ft | 18 kts | 296° |
| 2026-04-21 23:45 | 40.69038 | -74.17471 | 13 ft | 3 kts | 260° |
| 2026-04-21 23:45 | 40.69035 | -74.17493 | 13 ft | 0 kts | 259° |